Buie, Arkansas
Current Conditions -  °F | °C
As of 3:53 PM on Saturday 20 Dec 2014 (Local Time) from KLIT Reporting Station
Overcast Overcast  
Wind Chill: 49°   Ceiling: 5000
Heat Index: 49°   Visibility: 10mi
Dew Point: 35°   Wind: 3mph
Humidity: 59%   Direction: 40°NE
Pressure: 30.23"   Gusts: NA
Location:  34.2978°N, 92.5047°W
Report Text: KLIT 202153Z 04003KT 10SM OVC050 09/02 A3023 RMK AO2 SLP239 BINOVC T00940017
Loading
Personal Weather Stations






























Interactive Weather Map New forecast layout! Learn more

10-Day Weather Forecast

Advertisements
Track Severe Weather on mobile